Time;durP1;ratioP1;P1;durP2;ratioP2;P2;SDS_P1;SDS_P2;PMS_P1;PMS_P2;Temp;Humidity;BMP_temperature;BMP_pressure;BME280_temperature;BME280_humidity;BME280_pressure;Samples;Min_cycle;Max_cycle;Signal;HPM_P1;HPM_P2
2022/12/29 00:00:33;;;;;;;11.17;4.10;;;;;;;;;;6264395;28;20278;-85
2022/12/29 00:03:40;;;;;;;7.40;4.53;;;;;;;;;;6263763;28;20270;-86
2022/12/29 00:06:46;;;;;;;22.60;5.90;;;;;;;;;;6264598;28;20293;-85
2022/12/29 00:09:51;;;;;;;20.47;5.40;;;;;;;;;;6264522;28;20283;-86
2022/12/29 00:16:19;;;;;;;24.50;5.77;;;;;;;;;;6289082;28;20271;-86
2022/12/29 00:36:28;;;;;;;116.00;7.93;;;;;;;;;;6270608;28;20274;-85
2022/12/29 00:46:21;;;;;;;109.60;7.33;;;;;;;;;;6290285;28;20254;-87
2022/12/29 00:49:32;;;;;;;51.80;5.50;;;;;;;;;;6281400;28;20271;-87
2022/12/29 00:52:43;;;;;;;14.30;4.80;;;;;;;;;;6289241;28;20283;-86
2022/12/29 00:55:48;;;;;;;19.07;4.63;;;;;;;;;;6288176;28;20274;-86
2022/12/29 00:58:53;;;;;;;41.07;5.30;;;;;;;;;;6290785;28;20272;-86
2022/12/29 01:01:59;;;;;;;21.60;3.83;;;;;;;;;;6292482;28;20264;-86
2022/12/29 01:05:06;;;;;;;20.50;3.87;;;;;;;;;;6290482;28;20310;-87
2022/12/29 01:08:14;;;;;;;23.37;4.00;;;;;;;;;;6288902;28;20272;-85
2022/12/29 01:11:18;;;;;;;17.20;4.30;;;;;;;;;;6284704;28;20291;-86
2022/12/29 01:14:23;;;;;;;22.27;4.50;;;;;;;;;;6245355;28;20566;-86
2022/12/29 01:17:29;;;;;;;34.77;4.40;;;;;;;;;;6263114;28;20587;-86
2022/12/29 01:20:34;;;;;;;23.03;4.90;;;;;;;;;;6263617;28;20276;-86
2022/12/29 01:23:45;;;;;;;23.27;4.47;;;;;;;;;;6245911;28;20260;-86
2022/12/29 01:26:51;;;;;;;14.97;4.77;;;;;;;;;;6245913;28;20269;-87
2022/12/29 01:29:56;;;;;;;17.27;4.07;;;;;;;;;;6263922;28;20290;-87
2022/12/29 01:33:02;;;;;;;22.60;4.37;;;;;;;;;;6245591;28;20417;-86
2022/12/29 01:36:11;;;;;;;18.90;3.87;;;;;;;;;;6262020;28;20272;-86
2022/12/29 01:39:18;;;;;;;24.37;3.97;;;;;;;;;;6244640;28;20274;-86
2022/12/29 01:42:25;;;;;;;18.13;3.50;;;;;;;;;;6245045;28;20275;-85
2022/12/29 01:45:31;;;;;;;16.93;4.00;;;;;;;;;;6261864;28;20275;-86
2022/12/29 01:48:36;;;;;;;12.17;3.87;;;;;;;;;;6261988;28;20270;-86
2022/12/29 01:51:46;;;;;;;15.63;3.53;;;;;;;;;;6261827;28;20283;-86
2022/12/29 01:54:55;;;;;;;16.27;3.93;;;;;;;;;;6244369;28;20457;-86
2022/12/29 01:58:02;;;;;;;6.13;3.30;;;;;;;;;;6245024;28;20274;-86
2022/12/29 02:01:08;;;;;;;8.43;3.40;;;;;;;;;;6244788;28;20276;-86
2022/12/29 02:04:14;;;;;;;7.50;2.70;;;;;;;;;;6250860;28;20306;-86
2022/12/29 02:07:24;;;;;;;2.83;2.63;;;;;;;;;;6268893;28;20274;-85
2022/12/29 02:10:33;;;;;;;4.43;2.43;;;;;;;;;;6268606;28;20288;-86
2022/12/29 02:13:38;;;;;;;2.30;2.10;;;;;;;;;;6284930;28;20267;-87
2022/12/29 02:16:55;;;;;;;2.70;2.17;;;;;;;;;;6285460;28;20275;-86
2022/12/29 02:20:43;;;;;;;3.20;2.30;;;;;;;;;;6284713;28;20275;-87
2022/12/29 02:24:36;;;;;;;5.90;2.77;;;;;;;;;;6247677;28;20295;-86
2022/12/29 02:28:01;;;;;;;7.30;2.47;;;;;;;;;;6186626;28;20271;-86
2022/12/29 02:31:14;;;;;;;4.40;2.73;;;;;;;;;;6284955;28;20301;-86
2022/12/29 02:34:26;;;;;;;4.83;2.30;;;;;;;;;;6286360;28;20262;-85
2022/12/29 02:37:36;;;;;;;5.50;2.40;;;;;;;;;;6267853;28;20275;-85
2022/12/29 02:40:47;;;;;;;4.73;2.60;;;;;;;;;;6268349;28;20288;-87
2022/12/29 02:43:58;;;;;;;4.13;2.63;;;;;;;;;;6285420;28;20270;-85
2022/12/29 02:47:10;;;;;;;3.87;2.60;;;;;;;;;;6286085;28;20269;-87
2022/12/29 02:50:20;;;;;;;3.87;3.07;;;;;;;;;;6285550;28;20551;-87
2022/12/29 02:56:45;;;;;;;6.77;3.30;;;;;;;;;;6285073;28;20275;-86
2022/12/29 02:59:53;;;;;;;6.13;3.57;;;;;;;;;;6286270;28;20326;-86
2022/12/29 03:03:19;;;;;;;7.70;3.67;;;;;;;;;;6267961;28;20278;-87
2022/12/29 03:06:34;;;;;;;6.17;3.57;;;;;;;;;;6261135;28;20272;-86
2022/12/29 03:09:48;;;;;;;6.83;3.87;;;;;;;;;;6260861;28;20287;-86
2022/12/29 03:16:25;;;;;;;8.77;4.23;;;;;;;;;;6254098;28;20264;-86
2022/12/29 03:19:36;;;;;;;5.77;3.93;;;;;;;;;;6239524;28;20563;-88
2022/12/29 03:22:44;;;;;;;12.30;4.83;;;;;;;;;;6244130;28;20269;-86
2022/12/29 03:25:56;;;;;;;8.10;4.47;;;;;;;;;;6260577;28;20277;-87
2022/12/29 03:29:02;;;;;;;7.90;4.63;;;;;;;;;;6243587;28;20268;-87
2022/12/29 03:32:09;;;;;;;11.73;5.30;;;;;;;;;;6259236;28;20584;-87
2022/12/29 03:35:20;;;;;;;12.37;4.63;;;;;;;;;;6243498;28;20271;-87
2022/12/29 03:38:29;;;;;;;12.63;5.57;;;;;;;;;;6264986;28;20268;-87
2022/12/29 03:41:35;;;;;;;12.07;5.23;;;;;;;;;;6258327;28;20275;-85
2022/12/29 03:44:42;;;;;;;11.53;4.70;;;;;;;;;;6263982;28;20246;-87
2022/12/29 03:47:49;;;;;;;11.20;5.53;;;;;;;;;;6277467;28;20284;-86
2022/12/29 03:50:57;;;;;;;11.83;5.40;;;;;;;;;;6263522;28;20259;-86
2022/12/29 03:54:03;;;;;;;11.37;5.33;;;;;;;;;;6281604;28;20525;-87
2022/12/29 03:57:09;;;;;;;10.30;4.90;;;;;;;;;;6259979;28;20268;-86
2022/12/29 04:00:43;;;;;;;10.47;4.93;;;;;;;;;;6266503;28;20272;-87
2022/12/29 04:03:49;;;;;;;8.33;5.07;;;;;;;;;;6263661;28;20294;-84
2022/12/29 04:06:56;;;;;;;7.80;5.00;;;;;;;;;;6285825;28;20234;-85
2022/12/29 04:10:01;;;;;;;10.40;5.60;;;;;;;;;;6301453;28;20231;-86
2022/12/29 04:13:10;;;;;;;7.20;5.20;;;;;;;;;;6291031;28;20571;-86
2022/12/29 04:16:16;;;;;;;9.37;5.03;;;;;;;;;;6288698;28;20270;-86
2022/12/29 04:19:22;;;;;;;5.63;4.47;;;;;;;;;;6247916;28;20284;-86
2022/12/29 04:22:29;;;;;;;8.57;4.90;;;;;;;;;;6251014;28;20563;-86
2022/12/29 04:25:36;;;;;;;11.20;5.30;;;;;;;;;;6248842;28;20274;-86
2022/12/29 04:28:46;;;;;;;6.83;5.23;;;;;;;;;;6282591;28;20527;-86
2022/12/29 04:32:09;;;;;;;7.93;4.87;;;;;;;;;;6249495;28;20294;-87
2022/12/29 04:35:20;;;;;;;10.57;5.37;;;;;;;;;;6248453;28;20268;-86
2022/12/29 04:38:28;;;;;;;8.17;5.20;;;;;;;;;;6248059;28;20295;-86
2022/12/29 04:41:39;;;;;;;7.60;5.00;;;;;;;;;;6248092;28;20279;-86
2022/12/29 04:44:50;;;;;;;10.40;4.80;;;;;;;;;;6262515;28;20271;-86
2022/12/29 04:48:21;;;;;;;8.70;5.03;;;;;;;;;;6242615;28;20288;-86
2022/12/29 04:51:50;;;;;;;7.23;4.97;;;;;;;;;;6251048;28;20293;-87
2022/12/29 04:54:58;;;;;;;6.17;5.13;;;;;;;;;;6258098;28;20276;-85
2022/12/29 04:58:03;;;;;;;6.80;4.83;;;;;;;;;;6262824;28;20231;-86
2022/12/29 05:01:13;;;;;;;8.87;4.37;;;;;;;;;;6254873;28;20271;-86
2022/12/29 05:04:18;;;;;;;6.23;5.07;;;;;;;;;;6268367;28;20306;-86
2022/12/29 05:07:24;;;;;;;5.50;4.47;;;;;;;;;;6262062;28;20337;-85
2022/12/29 05:10:32;;;;;;;13.50;5.90;;;;;;;;;;6245595;28;20233;-86
2022/12/29 05:13:47;;;;;;;10.90;5.23;;;;;;;;;;6260559;28;20275;-86
2022/12/29 05:16:54;;;;;;;5.57;4.93;;;;;;;;;;6258093;28;20275;-87
2022/12/29 05:20:05;;;;;;;6.27;5.03;;;;;;;;;;6274035;28;20264;-85
2022/12/29 05:23:13;;;;;;;5.90;5.07;;;;;;;;;;6263548;28;20279;-86
2022/12/29 05:26:21;;;;;;;6.80;5.20;;;;;;;;;;6230145;28;20443;-86
2022/12/29 05:29:52;;;;;;;11.07;4.33;;;;;;;;;;6263339;28;20470;-87
2022/12/29 05:32:57;;;;;;;6.10;4.37;;;;;;;;;;6229586;28;20438;-87
2022/12/29 05:36:06;;;;;;;4.40;3.77;;;;;;;;;;6261593;28;20285;-87
2022/12/29 05:39:13;;;;;;;5.03;4.10;;;;;;;;;;6261681;28;20270;-85
2022/12/29 05:42:23;;;;;;;8.27;4.67;;;;;;;;;;6261467;28;20275;-88
2022/12/29 05:45:50;;;;;;;12.33;4.27;;;;;;;;;;6229020;28;20279;-85
2022/12/29 05:49:12;;;;;;;4.53;3.80;;;;;;;;;;6244524;28;20279;-85
2022/12/29 05:52:41;;;;;;;5.23;4.73;;;;;;;;;;6261784;28;20299;-87
2022/12/29 05:55:47;;;;;;;4.80;4.40;;;;;;;;;;6244543;28;20563;-84
2022/12/29 05:58:55;;;;;;;8.87;4.07;;;;;;;;;;6244304;28;20452;-86
2022/12/29 06:02:02;;;;;;;4.60;4.30;;;;;;;;;;6244570;28;20277;-86
2022/12/29 06:05:10;;;;;;;9.57;4.30;;;;;;;;;;6250591;28;20313;-86
2022/12/29 06:08:17;;;;;;;3.90;3.60;;;;;;;;;;6268467;28;20271;-85
2022/12/29 06:11:22;;;;;;;5.83;4.23;;;;;;;;;;6268979;28;20275;-86
2022/12/29 06:14:34;;;;;;;6.30;4.17;;;;;;;;;;6268531;28;20302;-82
2022/12/29 06:17:41;;;;;;;4.60;3.87;;;;;;;;;;6252203;28;20274;-87
2022/12/29 06:20:47;;;;;;;4.50;4.10;;;;;;;;;;6285980;28;20280;-86
2022/12/29 06:23:54;;;;;;;8.27;4.40;;;;;;;;;;6285165;28;20306;-86
2022/12/29 06:27:00;;;;;;;7.17;4.23;;;;;;;;;;6268639;28;20270;-86
2022/12/29 06:30:11;;;;;;;4.60;3.83;;;;;;;;;;6285192;28;20262;-86
2022/12/29 06:33:18;;;;;;;4.80;3.57;;;;;;;;;;6268170;28;20461;-86
2022/12/29 06:36:26;;;;;;;13.83;4.47;;;;;;;;;;6285259;28;20282;-86
2022/12/29 06:39:35;;;;;;;7.60;4.33;;;;;;;;;;6251935;28;20277;-86
2022/12/29 06:42:44;;;;;;;10.07;4.50;;;;;;;;;;6284945;28;20268;-85
2022/12/29 06:46:14;;;;;;;7.10;4.07;;;;;;;;;;6284544;28;20271;-85
2022/12/29 06:49:21;;;;;;;11.60;5.47;;;;;;;;;;6284350;28;20279;-84
2022/12/29 06:52:28;;;;;;;8.53;4.77;;;;;;;;;;6285759;28;20271;-85
2022/12/29 06:55:33;;;;;;;8.73;4.90;;;;;;;;;;6284973;28;20610;-85
2022/12/29 06:58:40;;;;;;;13.33;4.83;;;;;;;;;;6268060;28;20279;-86
2022/12/29 07:01:50;;;;;;;11.07;5.40;;;;;;;;;;6286110;28;20276;-85
2022/12/29 07:04:57;;;;;;;15.30;5.57;;;;;;;;;;6282955;28;20302;-85
2022/12/29 07:08:05;;;;;;;13.43;5.50;;;;;;;;;;6284197;28;20271;-85
2022/12/29 07:11:13;;;;;;;14.87;5.57;;;;;;;;;;6287033;28;20273;-84
2022/12/29 07:14:19;;;;;;;16.50;6.27;;;;;;;;;;6273538;28;20305;-85
2022/12/29 07:17:26;;;;;;;19.60;6.50;;;;;;;;;;6272575;28;20558;-85
2022/12/29 07:20:31;;;;;;;15.07;6.63;;;;;;;;;;6290618;28;20554;-86
2022/12/29 07:23:36;;;;;;;17.90;6.73;;;;;;;;;;6290576;28;20278;-84
2022/12/29 07:26:42;;;;;;;20.67;7.00;;;;;;;;;;6289005;28;20269;-85
2022/12/29 07:29:47;;;;;;;17.20;6.63;;;;;;;;;;6289829;28;20269;-83
2022/12/29 07:32:54;;;;;;;16.30;6.47;;;;;;;;;;6289520;28;20275;-84
2022/12/29 07:36:00;;;;;;;16.13;6.20;;;;;;;;;;6272003;28;20298;-85
2022/12/29 07:39:09;;;;;;;15.10;5.87;;;;;;;;;;6272271;28;20274;-85
2022/12/29 07:42:15;;;;;;;19.00;6.17;;;;;;;;;;6256855;28;20282;-85
2022/12/29 07:45:28;;;;;;;18.00;6.60;;;;;;;;;;6271430;28;20541;-78
2022/12/29 07:48:57;;;;;;;15.07;6.17;;;;;;;;;;6288390;28;20275;-79
2022/12/29 07:52:03;;;;;;;17.43;6.17;;;;;;;;;;6271536;28;20280;-80
2022/12/29 07:55:11;;;;;;;12.17;4.93;;;;;;;;;;6288517;28;20294;-79
2022/12/29 07:58:16;;;;;;;14.90;5.53;;;;;;;;;;6288781;28;20297;-79
2022/12/29 08:01:23;;;;;;;17.87;6.30;;;;;;;;;;6271398;28;20280;-82
2022/12/29 08:04:30;;;;;;;13.83;5.43;;;;;;;;;;6289168;28;20310;-83
2022/12/29 08:07:35;;;;;;;18.03;5.47;;;;;;;;;;6270993;28;20565;-81
2022/12/29 08:10:40;;;;;;;10.00;5.00;;;;;;;;;;6288970;28;20274;-80
2022/12/29 08:13:45;;;;;;;15.30;5.27;;;;;;;;;;6266329;28;20284;-83
2022/12/29 08:16:51;;;;;;;14.73;5.57;;;;;;;;;;6246564;28;20292;-80
2022/12/29 08:19:57;;;;;;;12.37;5.00;;;;;;;;;;6264042;28;20269;-81
2022/12/29 08:23:03;;;;;;;10.63;4.10;;;;;;;;;;6262265;28;20273;-83
2022/12/29 08:26:07;;;;;;;11.63;4.30;;;;;;;;;;6264119;28;20276;-81
2022/12/29 08:29:15;;;;;;;10.27;4.03;;;;;;;;;;6246246;28;20278;-82
2022/12/29 08:32:20;;;;;;;5.37;4.13;;;;;;;;;;6245955;28;20278;-79
2022/12/29 08:35:27;;;;;;;6.33;4.20;;;;;;;;;;6263932;28;20294;-81
2022/12/29 08:38:32;;;;;;;5.00;3.80;;;;;;;;;;6263445;28;20280;-81
2022/12/29 08:41:37;;;;;;;4.23;3.53;;;;;;;;;;6263503;28;20577;-80
2022/12/29 08:44:42;;;;;;;9.30;4.03;;;;;;;;;;6245743;28;20278;-81
2022/12/29 08:47:47;;;;;;;5.27;3.70;;;;;;;;;;6263395;28;20461;-80
2022/12/29 08:50:54;;;;;;;13.80;4.97;;;;;;;;;;6245989;28;20273;-81
2022/12/29 08:54:00;;;;;;;10.53;4.53;;;;;;;;;;6263684;28;20364;-82
2022/12/29 08:57:05;;;;;;;9.70;4.47;;;;;;;;;;6245900;28;20561;-83
2022/12/29 09:00:20;;;;;;;8.70;4.17;;;;;;;;;;6246570;28;20267;-81
2022/12/29 09:03:26;;;;;;;7.33;3.90;;;;;;;;;;6249561;28;20262;-82
2022/12/29 09:06:52;;;;;;;8.70;3.60;;;;;;;;;;6292153;28;20460;-83
2022/12/29 09:09:58;;;;;;;4.47;3.30;;;;;;;;;;6289035;28;20401;-83
2022/12/29 09:13:03;;;;;;;3.40;3.13;;;;;;;;;;6288698;28;20269;-80
2022/12/29 09:16:08;;;;;;;6.50;3.10;;;;;;;;;;6288762;28;20285;-83
2022/12/29 09:19:14;;;;;;;3.00;2.80;;;;;;;;;;6288756;28;20275;-83
2022/12/29 09:22:20;;;;;;;2.70;2.50;;;;;;;;;;6271936;28;20275;-82
2022/12/29 09:25:25;;;;;;;2.40;2.30;;;;;;;;;;6288525;28;20280;-81
2022/12/29 09:28:30;;;;;;;1.77;1.77;;;;;;;;;;6288062;28;20479;-82
2022/12/29 09:31:36;;;;;;;1.90;1.80;;;;;;;;;;6271379;28;20329;-82
2022/12/29 09:34:41;;;;;;;1.40;1.40;;;;;;;;;;6288576;28;20460;-83
2022/12/29 09:37:48;;;;;;;1.90;1.80;;;;;;;;;;6272038;28;20265;-84
2022/12/29 09:40:56;;;;;;;4.20;1.83;;;;;;;;;;6287900;28;20402;-80
2022/12/29 09:44:08;;;;;;;2.20;2.03;;;;;;;;;;6289793;28;20277;-84
2022/12/29 09:47:15;;;;;;;3.53;2.37;;;;;;;;;;6289803;28;20282;-87
2022/12/29 09:50:25;;;;;;;2.33;2.23;;;;;;;;;;6289078;28;20260;-84
2022/12/29 09:53:37;;;;;;;2.70;2.50;;;;;;;;;;6288840;28;20267;-84
2022/12/29 09:56:42;;;;;;;3.23;3.03;;;;;;;;;;6289036;28;20294;-85
2022/12/29 09:59:49;;;;;;;7.70;3.30;;;;;;;;;;6289149;28;20268;-85
2022/12/29 10:02:57;;;;;;;4.43;3.73;;;;;;;;;;6288628;28;20272;-85
2022/12/29 10:06:08;;;;;;;3.90;3.60;;;;;;;;;;6270321;28;20353;-84
2022/12/29 10:09:18;;;;;;;6.90;3.93;;;;;;;;;;6289161;28;20268;-84
2022/12/29 10:12:28;;;;;;;4.83;3.53;;;;;;;;;;6289804;28;20541;-84
2022/12/29 10:15:46;;;;;;;8.77;4.17;;;;;;;;;;6289217;28;20282;-84
2022/12/29 10:19:15;;;;;;;6.17;4.27;;;;;;;;;;6288782;28;20273;-84
2022/12/29 10:22:28;;;;;;;6.30;3.87;;;;;;;;;;6288649;28;20458;-85
2022/12/29 10:25:39;;;;;;;5.80;3.43;;;;;;;;;;6288726;28;20274;-86
2022/12/29 10:28:46;;;;;;;5.00;3.47;;;;;;;;;;6269711;28;20297;-84
2022/12/29 10:31:56;;;;;;;3.40;3.10;;;;;;;;;;6287562;28;20409;-85
2022/12/29 10:35:06;;;;;;;4.53;3.00;;;;;;;;;;6287182;28;20269;-85
2022/12/29 10:38:17;;;;;;;5.40;3.00;;;;;;;;;;6286665;28;20563;-85
2022/12/29 10:41:28;;;;;;;3.73;3.13;;;;;;;;;;6286901;28;20268;-84
2022/12/29 10:44:34;;;;;;;6.83;3.10;;;;;;;;;;6286641;28;20269;-85
2022/12/29 10:47:48;;;;;;;3.17;2.60;;;;;;;;;;6285603;28;20265;-84
2022/12/29 10:50:57;;;;;;;2.60;2.40;;;;;;;;;;6286124;28;20263;-85
2022/12/29 10:54:10;;;;;;;2.93;2.60;;;;;;;;;;6286550;28;20270;-85
2022/12/29 10:57:25;;;;;;;8.17;2.70;;;;;;;;;;6286665;28;20357;-85
2022/12/29 11:00:31;;;;;;;2.57;2.40;;;;;;;;;;6286376;28;20361;-85
2022/12/29 11:03:49;;;;;;;2.20;2.10;;;;;;;;;;6286094;28;20287;-85
2022/12/29 11:06:55;;;;;;;2.73;2.43;;;;;;;;;;6245866;28;20275;-85
2022/12/29 11:10:18;;;;;;;2.30;2.27;;;;;;;;;;6263452;28;20271;-85
2022/12/29 11:13:29;;;;;;;2.23;2.13;;;;;;;;;;6264642;28;20263;-83
2022/12/29 11:16:44;;;;;;;2.60;2.50;;;;;;;;;;6277090;28;20254;-84
2022/12/29 11:19:50;;;;;;;2.60;2.40;;;;;;;;;;6277217;28;20223;-85
2022/12/29 11:22:55;;;;;;;4.13;3.83;;;;;;;;;;6254467;28;20283;-85
2022/12/29 11:26:17;;;;;;;5.13;4.30;;;;;;;;;;6262610;28;20278;-85
2022/12/29 11:29:30;;;;;;;4.30;4.00;;;;;;;;;;6245622;28;20275;-85
2022/12/29 11:32:36;;;;;;;3.90;3.60;;;;;;;;;;6261330;28;20274;-85
2022/12/29 11:35:43;;;;;;;3.83;3.63;;;;;;;;;;6262019;28;20265;-84
2022/12/29 11:38:51;;;;;;;3.30;3.20;;;;;;;;;;6251601;28;20274;-84
2022/12/29 11:41:57;;;;;;;3.77;3.57;;;;;;;;;;6267628;28;20249;-82
2022/12/29 11:45:07;;;;;;;3.50;3.30;;;;;;;;;;6270816;28;20528;-84
2022/12/29 11:48:19;;;;;;;3.53;3.20;;;;;;;;;;6261171;28;20271;-84
2022/12/29 11:51:26;;;;;;;3.67;3.30;;;;;;;;;;6243175;28;20279;-83
2022/12/29 11:54:34;;;;;;;3.47;3.27;;;;;;;;;;6261075;28;20274;-85
2022/12/29 11:57:43;;;;;;;3.60;3.40;;;;;;;;;;6244925;28;20289;-84
2022/12/29 12:00:51;;;;;;;3.27;3.13;;;;;;;;;;6264879;28;20571;-83
2022/12/29 12:04:02;;;;;;;4.17;3.77;;;;;;;;;;6267496;28;20317;-83
2022/12/29 12:07:15;;;;;;;4.33;3.33;;;;;;;;;;6289123;28;20559;-84
2022/12/29 12:10:26;;;;;;;4.13;3.70;;;;;;;;;;6289276;28;20278;-83
2022/12/29 12:13:34;;;;;;;3.67;3.43;;;;;;;;;;6287406;28;20262;-83
2022/12/29 12:16:44;;;;;;;3.50;3.30;;;;;;;;;;6271526;28;20289;-84
2022/12/29 12:19:54;;;;;;;3.13;2.97;;;;;;;;;;6289010;28;20273;-84
2022/12/29 12:23:08;;;;;;;2.73;2.67;;;;;;;;;;6289835;28;20464;-83
2022/12/29 12:26:14;;;;;;;2.93;2.83;;;;;;;;;;6270930;28;20274;-83
2022/12/29 12:29:26;;;;;;;2.87;2.77;;;;;;;;;;6289212;28;20274;-83
2022/12/29 12:32:42;;;;;;;3.20;3.10;;;;;;;;;;6287186;28;20281;-83
2022/12/29 12:35:59;;;;;;;3.70;2.67;;;;;;;;;;6287853;28;20272;-83
2022/12/29 12:39:12;;;;;;;3.47;3.27;;;;;;;;;;6288611;28;20308;-86
2022/12/29 12:42:27;;;;;;;4.13;3.20;;;;;;;;;;6288305;28;20458;-87
2022/12/29 12:45:42;;;;;;;3.33;3.17;;;;;;;;;;6270791;28;20556;-85
2022/12/29 12:49:13;;;;;;;2.90;2.77;;;;;;;;;;6288049;28;20289;-86
2022/12/29 12:52:27;;;;;;;3.30;3.03;;;;;;;;;;6288911;28;20269;-84
2022/12/29 12:55:57;;;;;;;3.40;2.80;;;;;;;;;;6287361;28;20277;-85
2022/12/29 12:59:07;;;;;;;3.10;2.90;;;;;;;;;;6287047;28;20300;-85
2022/12/29 13:02:29;;;;;;;3.50;2.93;;;;;;;;;;6287929;28;20278;-85
2022/12/29 13:05:43;;;;;;;3.80;2.87;;;;;;;;;;6265600;28;20296;-85
2022/12/29 13:09:18;;;;;;;3.30;3.10;;;;;;;;;;6270254;28;20274;-84
2022/12/29 13:12:32;;;;;;;3.93;3.20;;;;;;;;;;6270482;28;20264;-85
2022/12/29 13:15:42;;;;;;;3.60;3.30;;;;;;;;;;6287713;28;20265;-85
2022/12/29 13:18:53;;;;;;;3.70;3.50;;;;;;;;;;6288151;28;20285;-85
2022/12/29 13:22:06;;;;;;;3.40;3.20;;;;;;;;;;6287473;28;20277;-84
2022/12/29 13:25:29;;;;;;;3.30;3.20;;;;;;;;;;6287839;28;20276;-84
2022/12/29 13:28:39;;;;;;;3.00;2.90;;;;;;;;;;6287347;28;20273;-86
2022/12/29 13:31:50;;;;;;;3.80;2.70;;;;;;;;;;6287817;28;20274;-85
2022/12/29 13:35:10;;;;;;;2.30;2.10;;;;;;;;;;6287401;28;20548;-83
2022/12/29 13:38:21;;;;;;;2.60;2.50;;;;;;;;;;6286940;28;20357;-84
2022/12/29 13:41:30;;;;;;;2.13;2.13;;;;;;;;;;6287321;28;20542;-85
2022/12/29 13:44:38;;;;;;;2.30;2.30;;;;;;;;;;6287601;28;20274;-85
2022/12/29 13:47:47;;;;;;;2.17;2.17;;;;;;;;;;6286585;28;20278;-84
2022/12/29 13:50:56;;;;;;;2.30;2.20;;;;;;;;;;6286525;28;20274;-85
2022/12/29 13:54:12;;;;;;;2.13;2.03;;;;;;;;;;6285480;28;20270;-83
2022/12/29 13:57:27;;;;;;;2.20;2.10;;;;;;;;;;6285882;28;20312;-83
2022/12/29 14:00:39;;;;;;;2.40;2.20;;;;;;;;;;6271176;28;20278;-83
2022/12/29 14:03:50;;;;;;;2.60;2.00;;;;;;;;;;6272518;28;20309;-82
2022/12/29 14:07:04;;;;;;;2.00;1.90;;;;;;;;;;6271994;28;20290;-84
2022/12/29 14:10:29;;;;;;;2.00;2.00;;;;;;;;;;6289984;28;20278;-83
2022/12/29 14:13:39;;;;;;;2.27;2.27;;;;;;;;;;6245752;28;20267;-81
2022/12/29 14:16:45;;;;;;;1.90;1.90;;;;;;;;;;6263870;28;20269;-88
2022/12/29 14:19:54;;;;;;;2.80;2.70;;;;;;;;;;6261555;28;20342;-88
2022/12/29 14:23:01;;;;;;;2.93;2.80;;;;;;;;;;6262726;28;20421;-90
2022/12/29 14:26:17;;;;;;;2.50;2.40;;;;;;;;;;6244699;28;20276;-87
2022/12/29 14:29:45;;;;;;;2.63;2.53;;;;;;;;;;6260567;28;20267;-87
2022/12/29 14:33:03;;;;;;;2.40;2.30;;;;;;;;;;6261703;28;20583;-87
2022/12/29 14:36:22;;;;;;;3.00;2.90;;;;;;;;;;6244316;28;20273;-86
2022/12/29 14:39:36;;;;;;;2.90;2.70;;;;;;;;;;6261497;28;20293;-85
2022/12/29 14:42:43;;;;;;;3.20;3.10;;;;;;;;;;6262140;28;20264;-88
2022/12/29 14:45:59;;;;;;;3.33;3.23;;;;;;;;;;6262143;28;20275;-88
2022/12/29 14:49:04;;;;;;;3.87;3.60;;;;;;;;;;6261859;28;20278;-89
2022/12/29 14:52:18;;;;;;;7.27;5.37;;;;;;;;;;6262256;28;20265;-90
2022/12/29 14:55:40;;;;;;;4.43;4.00;;;;;;;;;;6261313;28;20279;-87
2022/12/29 14:58:53;;;;;;;4.80;4.40;;;;;;;;;;6260996;28;20294;-87
2022/12/29 15:01:58;;;;;;;15.23;8.43;;;;;;;;;;6243588;28;20289;-87
2022/12/29 15:05:04;;;;;;;8.40;5.93;;;;;;;;;;6272742;28;20451;-86
2022/12/29 15:08:14;;;;;;;8.40;6.70;;;;;;;;;;6268632;28;20278;-87
2022/12/29 15:11:21;;;;;;;7.13;5.87;;;;;;;;;;6284893;28;20281;-88
2022/12/29 15:14:33;;;;;;;7.30;6.43;;;;;;;;;;6284736;28;20278;-87
2022/12/29 15:17:39;;;;;;;7.03;5.10;;;;;;;;;;6286922;28;20285;-87
2022/12/29 15:20:44;;;;;;;8.17;6.27;;;;;;;;;;6301907;28;20253;-87
2022/12/29 15:23:50;;;;;;;10.23;5.50;;;;;;;;;;6302067;28;20228;-87
2022/12/29 15:26:56;;;;;;;6.70;5.40;;;;;;;;;;6301512;28;20300;-86
2022/12/29 15:30:09;;;;;;;8.03;5.17;;;;;;;;;;6283913;28;20261;-86
2022/12/29 15:33:22;;;;;;;5.37;4.87;;;;;;;;;;6302149;28;20243;-87
2022/12/29 15:36:29;;;;;;;6.70;4.43;;;;;;;;;;6299788;28;20262;-87
2022/12/29 15:39:35;;;;;;;7.53;5.17;;;;;;;;;;6299124;28;20301;-86
2022/12/29 15:43:08;;;;;;;5.27;4.60;;;;;;;;;;6281459;28;20262;-87
2022/12/29 15:46:15;;;;;;;5.40;4.23;;;;;;;;;;6276788;28;20341;-87
2022/12/29 15:49:20;;;;;;;5.37;3.93;;;;;;;;;;6289368;28;20276;-87
2022/12/29 15:52:32;;;;;;;4.50;4.10;;;;;;;;;;6290023;28;20278;-87
2022/12/29 15:55:39;;;;;;;3.90;3.60;;;;;;;;;;6290077;28;20278;-86
2022/12/29 15:58:47;;;;;;;4.10;3.70;;;;;;;;;;6288765;28;20285;-86
2022/12/29 16:01:54;;;;;;;3.83;3.50;;;;;;;;;;6288788;28;20554;-86
2022/12/29 16:04:59;;;;;;;4.07;3.77;;;;;;;;;;6290291;28;20302;-86
2022/12/29 16:08:33;;;;;;;3.30;2.80;;;;;;;;;;6289423;28;20288;-87
2022/12/29 16:11:41;;;;;;;3.40;3.10;;;;;;;;;;6272046;28;20278;-86
2022/12/29 16:14:48;;;;;;;3.63;3.30;;;;;;;;;;6289450;28;20565;-85
2022/12/29 16:17:55;;;;;;;3.40;3.20;;;;;;;;;;6288943;28;20447;-86
2022/12/29 16:21:01;;;;;;;3.60;3.30;;;;;;;;;;6289691;28;20294;-87
2022/12/29 16:24:08;;;;;;;3.53;3.27;;;;;;;;;;6289596;28;20266;-88
2022/12/29 16:27:20;;;;;;;6.50;3.50;;;;;;;;;;6289477;28;20274;-87
2022/12/29 16:30:27;;;;;;;3.90;3.70;;;;;;;;;;6289287;28;20269;-89
2022/12/29 16:33:46;;;;;;;3.73;3.63;;;;;;;;;;6293903;28;20275;-87
2022/12/29 16:36:56;;;;;;;4.27;3.87;;;;;;;;;;6293508;28;20609;-87
2022/12/29 16:40:27;;;;;;;6.87;4.03;;;;;;;;;;6272543;28;20298;-87
2022/12/29 16:43:34;;;;;;;5.03;4.53;;;;;;;;;;6270709;28;20272;-88
2022/12/29 16:46:44;;;;;;;6.10;4.00;;;;;;;;;;6289030;28;20271;-89
2022/12/29 16:49:53;;;;;;;6.50;4.33;;;;;;;;;;6272129;28;20274;-88
2022/12/29 16:52:58;;;;;;;5.57;3.70;;;;;;;;;;6288640;28;20270;-90
2022/12/29 16:56:09;;;;;;;5.47;4.03;;;;;;;;;;6289662;28;20273;-87
2022/12/29 16:59:26;;;;;;;7.53;4.50;;;;;;;;;;6288646;28;20285;-87
2022/12/29 17:02:33;;;;;;;11.43;4.73;;;;;;;;;;6288497;28;20551;-85
2022/12/29 17:05:40;;;;;;;7.30;4.30;;;;;;;;;;6288100;28;20298;-87
2022/12/29 17:08:46;;;;;;;4.33;4.10;;;;;;;;;;6288228;28;20274;-86
2022/12/29 17:11:55;;;;;;;6.67;4.87;;;;;;;;;;6281754;28;20271;-88
2022/12/29 17:15:15;;;;;;;5.57;4.17;;;;;;;;;;6263268;28;20274;-86
2022/12/29 17:18:21;;;;;;;4.27;4.00;;;;;;;;;;6274396;28;20219;-86
2022/12/29 17:21:28;;;;;;;8.37;4.83;;;;;;;;;;6278692;28;20271;-85
2022/12/29 17:24:33;;;;;;;5.70;4.00;;;;;;;;;;6278685;28;20260;-87
2022/12/29 17:27:43;;;;;;;6.77;4.27;;;;;;;;;;6278504;28;20220;-86
2022/12/29 17:30:49;;;;;;;5.50;3.90;;;;;;;;;;6272400;28;20271;-87
2022/12/29 17:33:55;;;;;;;4.63;4.23;;;;;;;;;;6253373;28;20295;-86
2022/12/29 17:37:03;;;;;;;4.93;4.53;;;;;;;;;;6263663;28;20268;-87
2022/12/29 17:40:12;;;;;;;4.90;4.50;;;;;;;;;;6262874;28;20287;-86
2022/12/29 17:43:18;;;;;;;4.73;4.43;;;;;;;;;;6260734;28;20267;-87
2022/12/29 17:46:24;;;;;;;10.10;5.13;;;;;;;;;;6263664;28;20271;-87
2022/12/29 17:49:29;;;;;;;5.60;4.23;;;;;;;;;;6262488;28;20278;-86
2022/12/29 17:52:36;;;;;;;4.47;3.87;;;;;;;;;;6261979;28;20269;-85
2022/12/29 17:55:42;;;;;;;6.60;4.47;;;;;;;;;;6245496;28;20279;-88
2022/12/29 17:58:49;;;;;;;6.33;4.67;;;;;;;;;;6262387;28;20319;-87
2022/12/29 18:01:55;;;;;;;8.87;4.57;;;;;;;;;;6264174;28;20291;-88
2022/12/29 18:05:04;;;;;;;25.90;7.63;;;;;;;;;;6258418;28;20306;-86
2022/12/29 18:08:13;;;;;;;11.17;5.63;;;;;;;;;;6288449;28;20273;-85
2022/12/29 18:11:25;;;;;;;13.30;4.47;;;;;;;;;;6287219;28;20290;-85
2022/12/29 18:14:31;;;;;;;10.13;4.53;;;;;;;;;;6268898;28;20295;-86
2022/12/29 18:17:36;;;;;;;11.57;4.83;;;;;;;;;;6286631;28;20461;-78
2022/12/29 18:20:44;;;;;;;8.93;4.10;;;;;;;;;;6285446;28;20294;-80
2022/12/29 18:23:51;;;;;;;7.60;4.50;;;;;;;;;;6293491;28;20233;-81
2022/12/29 18:26:56;;;;;;;4.87;3.90;;;;;;;;;;6301360;28;20247;-84
2022/12/29 18:30:01;;;;;;;6.03;3.80;;;;;;;;;;6290069;28;20448;-85
2022/12/29 18:33:09;;;;;;;8.77;4.47;;;;;;;;;;6287688;28;20265;-87
2022/12/29 18:36:22;;;;;;;4.00;3.43;;;;;;;;;;6265028;28;20231;-91
2022/12/29 18:39:30;;;;;;;5.40;3.63;;;;;;;;;;6287468;28;20274;-88
2022/12/29 18:42:35;;;;;;;4.00;3.80;;;;;;;;;;6288967;28;20293;-88
2022/12/29 18:45:41;;;;;;;5.63;3.97;;;;;;;;;;6289810;28;20286;-91
2022/12/29 18:48:46;;;;;;;10.73;5.63;;;;;;;;;;6272979;28;20263;-90
2022/12/29 18:51:52;;;;;;;10.13;4.10;;;;;;;;;;6293540;28;20271;-91
2022/12/29 18:54:59;;;;;;;6.77;3.70;;;;;;;;;;6294220;28;20550;-91
2022/12/29 18:58:04;;;;;;;13.47;4.40;;;;;;;;;;6294329;28;20266;-90
2022/12/29 19:01:20;;;;;;;9.83;3.73;;;;;;;;;;6273320;28;20290;-90
2022/12/29 19:04:26;;;;;;;5.90;3.90;;;;;;;;;;6272205;28;20293;-89
2022/12/29 19:07:32;;;;;;;6.07;3.83;;;;;;;;;;6294616;28;20277;-94
2022/12/29 19:10:41;;;;;;;4.27;3.90;;;;;;;;;;6295444;28;20267;-87
2022/12/29 19:13:50;;;;;;;7.63;4.00;;;;;;;;;;6231538;28;20557;-82
2022/12/29 19:16:55;;;;;;;5.90;3.67;;;;;;;;;;6265655;28;20457;-84
2022/12/29 19:20:02;;;;;;;6.40;3.60;;;;;;;;;;6248223;28;20278;-82
2022/12/29 19:23:09;;;;;;;6.43;3.47;;;;;;;;;;6265060;28;20290;-81
2022/12/29 19:26:27;;;;;;;5.57;3.50;;;;;;;;;;6265056;28;20442;-81
2022/12/29 19:29:33;;;;;;;6.07;3.03;;;;;;;;;;6265459;28;20276;-81